Terminal Aerodrome Forecast
Issued by NWS Denver/Boulder, CO

Home | Current Version | Previous Version | Text Only | Print | Product List | Glossary On
Versions: 1 2 3 4 5 6 7 8 9 10 11 12 13 14 15 16 17 18 19 20 21 22 23 24 25 26 27 28 29 30 31 32 33 34 35 36 37 38 39 40 41 42 43 44 45 46 47 48 49 50
000
FTUS45 KBOU 192259 AAC
TAFDEN
TAF AMD
KDEN 192259Z 1923/2024 20014KT P6SM -TSRA FEW050 BKN060CB BKN100
     FM192330 16011KT P6SM SCT060 BKN100
     FM200400 20010KT P6SM SCT080 BKN120
     FM200700 22010KT P6SM VCSH FEW080 BKN120
     FM201300 VRB05KT P6SM SCT120
     FM201600 30007KT P6SM SCT090
     FM202000 34010KT P6SM SCT090=

USA.gov is the U.S. government's official web portal to all federal, state and local government web resources and services.